Terminal Aerodrome Forecast
Issued by NWS Twin Cities, MN

Home | Current Version | Previous Version | Text Only | Print | Product List | Glossary On
Versions: 1 2 3 4 5 6 7 8 9 10 11 12 13
095
FTUS43 KMPX 031741
TAFEAU
TAF
KEAU 031741Z 0318/0418 23004KT P6SM OVC028
     FM032300 14004KT P6SM OVC035
     FM040800 14007KT 5SM -SN OVC025
     FM041000 14008KT 1 1/2SM -SN BR OVC008
      TEMPO 0412/0416 3/4SM -SN BR OVC004=

USA.gov is the U.S. government's official web portal to all federal, state and local government web resources and services.